Time;durP1;ratioP1;P1;durP2;ratioP2;P2;SDS_P1;SDS_P2;PMS_P1;PMS_P2;Temp;Humidity;BMP_temperature;BMP_pressure;BME280_temperature;BME280_humidity;BME280_pressure;Samples;Min_cycle;Max_cycle;Signal;HPM_P1;HPM_P2
2022/03/20 00:00:17;;;;;;;18.53;15.43;;;7.80;53.00;;;;;;5022599;28;20459;-42
2022/03/20 00:02:44;;;;;;;21.47;16.20;;;7.80;52.40;;;;;;5022738;28;21016;-43
2022/03/20 00:05:11;;;;;;;21.60;16.53;;;7.80;53.00;;;;;;5004049;28;20514;-43
2022/03/20 00:07:38;;;;;;;20.00;14.50;;;7.70;52.90;;;;;;5019054;28;20502;-43
2022/03/20 00:10:06;;;;;;;17.43;15.50;;;7.70;52.40;;;;;;5016457;28;20460;-43
2022/03/20 00:12:33;;;;;;;20.67;15.70;;;7.70;52.70;;;;;;5019981;28;20451;-42
2022/03/20 00:15:00;;;;;;;18.20;14.70;;;7.70;52.50;;;;;;5007108;28;20820;-42
2022/03/20 00:17:27;;;;;;;20.13;15.50;;;7.60;52.60;;;;;;5024375;28;20513;-42
2022/03/20 00:19:53;;;;;;;20.30;15.47;;;7.60;52.40;;;;;;5019111;28;20459;-43
2022/03/20 00:22:20;;;;;;;19.70;16.80;;;7.60;52.40;;;;;;5023561;28;21003;-42
2022/03/20 00:24:47;;;;;;;17.73;13.60;;;7.60;52.30;;;;;;5005655;28;20538;-42
2022/03/20 00:27:15;;;;;;;18.43;13.90;;;7.50;52.50;;;;;;5024324;28;20466;-42
2022/03/20 00:29:42;;;;;;;19.53;15.57;;;7.50;52.10;;;;;;5024481;28;20986;-42
2022/03/20 00:32:11;;;;;;;19.30;15.73;;;7.50;52.30;;;;;;5025431;28;20470;-42
2022/03/20 00:34:39;;;;;;;22.43;14.97;;;7.50;52.50;;;;;;5019972;28;20456;-43
2022/03/20 00:37:07;;;;;;;22.13;15.90;;;7.50;52.60;;;;;;5024828;28;20489;-43
2022/03/20 00:39:35;;;;;;;19.83;15.80;;;7.50;52.60;;;;;;5022968;28;20911;-43
2022/03/20 00:42:02;;;;;;;18.13;14.10;;;7.50;52.50;;;;;;5023333;28;21021;-43
2022/03/20 00:44:29;;;;;;;20.10;15.33;;;7.40;52.30;;;;;;5008968;28;20467;-43
2022/03/20 00:46:55;;;;;;;25.77;15.80;;;7.40;52.20;;;;;;5021445;28;20487;-43
2022/03/20 00:49:22;;;;;;;20.60;15.60;;;7.40;51.80;;;;;;5020625;28;20582;-43
2022/03/20 00:51:49;;;;;;;20.10;14.00;;;7.30;51.60;;;;;;5022487;28;20517;-43
2022/03/20 00:54:16;;;;;;;18.93;15.10;;;7.30;52.30;;;;;;5018332;28;20463;-43
2022/03/20 00:56:43;;;;;;;23.43;14.97;;;7.30;52.10;;;;;;5016383;28;20492;-43
2022/03/20 00:59:09;;;;;;;22.47;14.97;;;7.20;52.30;;;;;;5024260;28;20982;-43
2022/03/20 01:01:36;;;;;;;15.80;14.17;;;7.30;51.80;;;;;;5019873;28;20470;-43
2022/03/20 01:04:03;;;;;;;22.67;15.60;;;7.30;52.40;;;;;;5034245;28;20968;-43
2022/03/20 01:06:31;;;;;;;19.17;15.17;;;7.30;52.60;;;;;;5020356;28;20460;-43
2022/03/20 01:08:58;;;;;;;20.17;15.30;;;7.30;52.60;;;;;;5006426;28;20463;-43
2022/03/20 01:11:26;;;;;;;20.07;14.63;;;7.30;52.40;;;;;;5017887;28;20463;-43
2022/03/20 01:13:56;;;;;;;24.80;13.90;;;7.30;52.90;;;;;;5026034;28;20489;-43
2022/03/20 01:16:22;;;;;;;20.80;15.43;;;7.20;52.90;;;;;;5023283;28;20932;-43
2022/03/20 01:18:50;;;;;;;25.70;15.20;;;7.20;52.20;;;;;;5025700;28;20544;-43
2022/03/20 01:21:17;;;;;;;19.00;14.90;;;7.20;52.30;;;;;;5025986;28;20494;-43
2022/03/20 01:23:43;;;;;;;20.30;15.97;;;7.20;52.30;;;;;;5024851;28;20447;-43
2022/03/20 01:26:11;;;;;;;19.77;14.13;;;7.20;52.10;;;;;;5024311;28;20459;-43
2022/03/20 01:28:38;;;;;;;18.33;14.03;;;7.20;52.10;;;;;;5023873;28;20459;-43
2022/03/20 01:31:08;;;;;;;21.50;14.60;;;7.10;52.10;;;;;;5025217;28;20455;-42
2022/03/20 01:33:35;;;;;;;18.13;14.80;;;7.10;52.50;;;;;;5024970;28;20466;-42
2022/03/20 01:36:02;;;;;;;19.17;14.00;;;7.10;52.10;;;;;;5003430;28;20708;-42
2022/03/20 01:38:29;;;;;;;20.13;14.97;;;7.10;52.60;;;;;;5021949;28;20471;-42
2022/03/20 01:40:56;;;;;;;18.80;14.40;;;7.10;53.00;;;;;;5023563;28;20836;-42
2022/03/20 01:43:23;;;;;;;17.20;14.27;;;7.10;52.00;;;;;;5021443;28;20478;-43
2022/03/20 01:45:50;;;;;;;18.43;14.00;;;7.00;51.50;;;;;;5022344;28;20473;-43
2022/03/20 01:48:17;;;;;;;19.60;14.60;;;7.10;52.30;;;;;;5021090;28;20518;-43
2022/03/20 01:50:43;;;;;;;20.03;15.80;;;7.00;52.60;;;;;;5020782;28;20467;-43
2022/03/20 01:53:10;;;;;;;19.63;15.73;;;7.00;53.10;;;;;;5022142;28;20506;-43
2022/03/20 01:55:37;;;;;;;16.43;14.03;;;7.00;52.90;;;;;;5021545;28;20459;-43
2022/03/20 01:58:04;;;;;;;17.73;13.93;;;7.00;53.00;;;;;;5020241;28;20455;-43
2022/03/20 02:00:32;;;;;;;19.43;14.63;;;7.00;52.80;;;;;;5024818;28;20452;-43
2022/03/20 02:02:59;;;;;;;19.73;14.20;;;7.00;52.60;;;;;;5005419;28;20459;-43
2022/03/20 02:05:27;;;;;;;22.83;14.90;;;7.00;52.70;;;;;;5022073;28;21211;-43
2022/03/20 02:07:54;;;;;;;19.10;14.20;;;6.90;53.20;;;;;;5020546;28;20485;-43
2022/03/20 02:10:21;;;;;;;20.67;16.40;;;6.90;53.50;;;;;;5018253;28;20460;-43
2022/03/20 02:12:47;;;;;;;20.57;14.90;;;6.90;53.20;;;;;;5021623;28;20503;-43
2022/03/20 02:15:14;;;;;;;18.93;15.03;;;6.80;53.40;;;;;;5005658;28;20463;-43
2022/03/20 02:17:42;;;;;;;22.50;15.93;;;6.80;53.10;;;;;;5014154;28;20487;-43
2022/03/20 02:20:11;;;;;;;19.53;14.10;;;6.80;53.60;;;;;;5020517;28;20455;-43
2022/03/20 02:22:43;;;;;;;28.53;16.13;;;6.80;53.50;;;;;;5003325;28;20469;-43
2022/03/20 02:25:11;;;;;;;21.70;14.53;;;6.80;53.70;;;;;;5022268;28;20831;-43
2022/03/20 02:27:41;;;;;;;22.23;15.10;;;6.80;53.20;;;;;;5019445;28;20464;-43
2022/03/20 02:30:14;;;;;;;18.40;14.30;;;6.70;53.40;;;;;;5022319;28;20471;-43
2022/03/20 02:32:47;;;;;;;23.27;15.60;;;6.70;53.00;;;;;;5018822;28;20464;-43
2022/03/20 02:35:15;;;;;;;19.87;14.90;;;6.70;53.40;;;;;;5004966;28;20551;-43
2022/03/20 02:37:48;;;;;;;20.57;13.50;;;6.70;53.60;;;;;;5004584;28;20603;-43
2022/03/20 02:40:17;;;;;;;16.07;13.37;;;6.70;53.50;;;;;;5018266;28;20483;-43
2022/03/20 02:42:48;;;;;;;19.37;14.67;;;6.70;53.50;;;;;;5006721;28;20463;-43
2022/03/20 02:45:30;;;;;;;21.77;15.77;;;6.60;53.60;;;;;;5023227;28;20454;-43
2022/03/20 02:47:59;;;;;;;22.07;15.47;;;6.60;53.50;;;;;;5008905;28;20483;-43
2022/03/20 02:50:32;;;;;;;21.90;15.57;;;6.60;53.30;;;;;;5020162;28;20474;-43
2022/03/20 02:53:03;;;;;;;21.40;14.67;;;6.60;53.50;;;;;;5011047;28;20480;-43
2022/03/20 02:55:35;;;;;;;18.17;14.40;;;6.60;53.70;;;;;;5018702;28;20461;-43
2022/03/20 02:58:09;;;;;;;22.00;15.33;;;6.60;53.40;;;;;;5023093;28;20486;-43
2022/03/20 03:00:37;;;;;;;20.97;15.50;;;6.60;53.30;;;;;;5020271;28;20475;-43
2022/03/20 03:03:08;;;;;;;20.17;14.97;;;6.50;53.60;;;;;;5021346;28;20459;-43
2022/03/20 03:05:35;;;;;;;20.27;14.93;;;6.50;54.10;;;;;;5016921;28;21114;-43
2022/03/20 03:10:56;;;;;;;19.27;16.63;;;6.50;53.80;;;;;;5014925;28;20472;-43
2022/03/20 03:13:23;;;;;;;20.27;15.40;;;6.50;53.90;;;;;;5023189;28;20701;-42
2022/03/20 03:15:55;;;;;;;17.90;14.13;;;6.40;54.00;;;;;;5003802;28;20456;-43
2022/03/20 03:18:23;;;;;;;26.80;16.43;;;6.40;53.90;;;;;;5021273;28;20968;-42
2022/03/20 03:20:50;;;;;;;21.37;15.00;;;6.50;53.70;;;;;;5019727;28;20507;-42
2022/03/20 03:23:18;;;;;;;22.97;15.77;;;6.40;53.70;;;;;;5017964;28;20451;-42
2022/03/20 03:25:45;;;;;;;22.07;16.70;;;6.40;53.60;;;;;;5018376;28;21056;-42
2022/03/20 03:28:12;;;;;;;22.00;15.53;;;6.40;53.60;;;;;;5024513;28;20467;-42
2022/03/20 03:30:43;;;;;;;20.07;15.63;;;6.40;53.40;;;;;;5025630;28;20464;-43
2022/03/20 03:33:11;;;;;;;23.30;15.80;;;6.40;53.80;;;;;;5023112;28;20472;-43
2022/03/20 03:35:42;;;;;;;22.70;16.00;;;6.50;54.00;;;;;;5027853;28;20828;-43
2022/03/20 03:38:18;;;;;;;20.00;14.73;;;6.40;53.90;;;;;;5041051;28;20494;-43
2022/03/20 03:40:47;;;;;;;22.33;16.77;;;6.40;54.00;;;;;;5011466;28;20465;-43
2022/03/20 03:43:15;;;;;;;21.17;17.53;;;6.40;53.30;;;;;;5026588;28;20459;-43
2022/03/20 03:45:43;;;;;;;20.80;16.17;;;6.40;53.60;;;;;;5007862;28;21302;-43
2022/03/20 03:48:11;;;;;;;22.17;14.87;;;6.40;53.80;;;;;;5026065;28;20881;-43
2022/03/20 03:50:40;;;;;;;24.77;16.93;;;6.40;54.00;;;;;;5019196;28;20537;-43
2022/03/20 03:53:09;;;;;;;21.37;16.00;;;6.40;53.70;;;;;;5018567;28;20471;-43
2022/03/20 03:55:38;;;;;;;20.80;15.57;;;6.40;53.90;;;;;;5021149;28;20464;-43
2022/03/20 03:58:05;;;;;;;21.67;17.03;;;6.40;53.70;;;;;;5019616;28;20484;-43
2022/03/20 04:00:33;;;;;;;21.50;16.67;;;6.40;53.80;;;;;;5009342;28;20961;-43
2022/03/20 04:03:00;;;;;;;21.27;16.80;;;6.40;54.10;;;;;;5006709;28;20815;-43
2022/03/20 04:05:28;;;;;;;21.57;16.03;;;6.40;54.10;;;;;;5019940;28;20462;-43
2022/03/20 04:07:55;;;;;;;19.20;15.93;;;6.40;53.80;;;;;;5019892;28;20475;-43
2022/03/20 04:10:23;;;;;;;27.20;17.50;;;6.40;53.70;;;;;;5024148;28;20464;-43
2022/03/20 04:12:50;;;;;;;24.50;17.90;;;6.40;54.20;;;;;;5022234;28;20470;-43
2022/03/20 04:15:21;;;;;;;29.27;18.70;;;6.40;54.40;;;;;;5024069;28;20974;-43
2022/03/20 04:17:48;;;;;;;22.97;16.87;;;6.30;54.10;;;;;;5021926;28;20586;-43
2022/03/20 04:20:15;;;;;;;24.13;17.70;;;6.30;54.00;;;;;;5022637;28;20456;-43
2022/03/20 04:23:43;;;;;;;25.13;17.10;;;6.30;53.90;;;;;;5022745;28;20452;-43
2022/03/20 04:25:33;;;;;;;23.60;16.93;;;6.30;54.10;;;;;;5025469;28;20482;-43
2022/03/20 04:28:00;;;;;;;30.50;18.90;;;6.30;54.10;;;;;;5023268;28;20460;-43
2022/03/20 04:30:28;;;;;;;22.07;15.77;;;6.30;53.40;;;;;;5022200;28;20459;-43
2022/03/20 04:32:56;;;;;;;24.03;16.80;;;6.30;53.30;;;;;;5004741;28;20448;-43
2022/03/20 04:35:23;;;;;;;26.00;18.13;;;6.30;53.40;;;;;;5018970;28;20452;-43
2022/03/20 04:37:56;;;;;;;24.60;18.50;;;6.40;53.60;;;;;;5005682;28;20503;-43
2022/03/20 04:40:23;;;;;;;22.00;17.73;;;6.30;53.40;;;;;;5026697;28;20452;-43
2022/03/20 04:42:50;;;;;;;30.93;17.53;;;6.40;53.90;;;;;;5020968;28;20628;-43
2022/03/20 04:45:17;;;;;;;23.50;17.87;;;6.40;53.50;;;;;;5021161;28;20471;-43
2022/03/20 04:58:47;;;;;;;24.47;17.87;;;6.30;53.80;;;;;;5024123;28;20460;-43
2022/03/20 05:01:14;;;;;;;28.83;19.20;;;6.30;54.40;;;;;;5025449;28;20483;-43
2022/03/20 05:03:41;;;;;;;25.07;18.00;;;6.30;54.50;;;;;;5027047;28;20464;-43
2022/03/20 05:06:07;;;;;;;21.93;17.60;;;6.30;54.90;;;;;;5022800;28;20471;-43
2022/03/20 05:08:35;;;;;;;25.63;19.20;;;6.30;55.10;;;;;;5027395;28;20464;-43
2022/03/20 05:13:49;;;;;;;26.33;18.17;;;6.30;55.00;;;;;;5016241;28;20471;-43
2022/03/20 05:16:15;;;;;;;25.17;18.10;;;6.30;55.30;;;;;;5028054;28;20479;-43
2022/03/20 05:18:42;;;;;;;33.63;19.63;;;6.30;55.20;;;;;;5024921;28;20526;-43
2022/03/20 05:21:10;;;;;;;24.40;18.17;;;6.30;55.60;;;;;;5021127;28;20551;-43
2022/03/20 05:23:39;;;;;;;26.30;17.70;;;6.30;55.80;;;;;;5024851;28;20479;-43
2022/03/20 05:26:05;;;;;;;28.13;19.83;;;6.30;55.70;;;;;;5022240;28;20463;-43
2022/03/20 05:28:32;;;;;;;25.37;18.80;;;6.30;55.80;;;;;;5009188;28;20468;-43
2022/03/20 05:30:59;;;;;;;29.00;20.40;;;6.30;55.50;;;;;;5010290;28;20986;-43
2022/03/20 05:33:26;;;;;;;29.10;19.50;;;6.30;55.60;;;;;;5024206;28;20995;-43
2022/03/20 05:35:53;;;;;;;30.43;18.33;;;6.30;55.90;;;;;;5038869;28;20507;-43
2022/03/20 05:38:20;;;;;;;25.40;19.70;;;6.30;55.90;;;;;;5010268;28;20578;-44
2022/03/20 05:40:47;;;;;;;25.43;19.80;;;6.30;56.50;;;;;;5023014;28;20455;-43
2022/03/20 05:43:13;;;;;;;27.40;18.73;;;6.30;56.30;;;;;;5008009;28;20826;-43
2022/03/20 05:45:40;;;;;;;28.07;19.67;;;6.30;56.70;;;;;;5024483;28;20463;-44
2022/03/20 05:48:10;;;;;;;30.90;19.20;;;6.30;56.60;;;;;;5025686;28;21087;-44
2022/03/20 05:50:42;;;;;;;26.10;19.10;;;6.30;56.10;;;;;;5023345;28;20482;-44
2022/03/20 05:53:09;;;;;;;29.03;18.97;;;6.40;56.20;;;;;;5005090;28;20469;-44
2022/03/20 05:58:21;;;;;;;28.93;18.77;;;6.40;56.20;;;;;;5023030;28;20491;-43
2022/03/20 06:00:47;;;;;;;27.83;19.50;;;6.40;55.70;;;;;;5008543;28;20463;-43
2022/03/20 06:03:15;;;;;;;31.80;20.43;;;6.40;55.40;;;;;;5020714;28;20464;-44
2022/03/20 06:05:42;;;;;;;27.77;20.60;;;6.40;55.60;;;;;;5026628;28;20451;-43
2022/03/20 06:08:08;;;;;;;28.90;20.47;;;6.50;56.00;;;;;;5022331;28;20499;-43
2022/03/20 06:10:35;;;;;;;30.67;22.07;;;6.50;55.80;;;;;;5010534;28;20471;-43
2022/03/20 06:13:05;;;;;;;34.70;21.53;;;6.50;55.80;;;;;;5023619;28;20473;-43
2022/03/20 06:15:32;;;;;;;27.33;20.30;;;6.50;55.20;;;;;;5024401;28;20493;-43
2022/03/20 06:18:04;;;;;;;24.50;20.23;;;6.50;55.20;;;;;;5025518;28;20524;-43
2022/03/20 06:20:35;;;;;;;28.50;19.83;;;6.50;55.20;;;;;;5015635;28;20483;-43
2022/03/20 06:23:03;;;;;;;31.43;20.53;;;6.50;55.20;;;;;;5028159;28;20646;-43
2022/03/20 06:25:29;;;;;;;29.33;20.43;;;6.60;55.50;;;;;;5021206;28;20460;-43
2022/03/20 06:27:59;;;;;;;29.67;18.83;;;6.60;55.90;;;;;;5021931;28;20474;-43
2022/03/20 06:30:27;;;;;;;31.13;21.00;;;6.60;55.90;;;;;;5021765;28;20467;-44
2022/03/20 06:32:55;;;;;;;33.53;21.60;;;6.60;55.80;;;;;;5023566;28;20486;-43
2022/03/20 06:35:22;;;;;;;29.00;21.70;;;6.60;55.80;;;;;;5019482;28;20503;-43
2022/03/20 06:37:52;;;;;;;27.77;21.47;;;6.70;55.70;;;;;;5022233;28;20503;-43
2022/03/20 06:40:20;;;;;;;31.33;21.20;;;6.70;55.60;;;;;;5007239;28;20896;-43
2022/03/20 06:42:47;;;;;;;32.20;20.93;;;6.80;55.80;;;;;;5024907;28;20495;-43
2022/03/20 06:45:15;;;;;;;31.63;21.60;;;6.80;55.60;;;;;;5023955;28;20685;-43
2022/03/20 06:47:43;;;;;;;29.67;21.47;;;6.90;55.40;;;;;;5021799;28;20480;-43
2022/03/20 06:50:12;;;;;;;27.00;21.60;;;6.90;55.40;;;;;;5018676;28;20471;-43
2022/03/20 06:52:38;;;;;;;32.17;21.50;;;6.90;55.40;;;;;;5020922;28;20471;-43
2022/03/20 06:55:07;;;;;;;30.50;21.83;;;6.90;55.40;;;;;;5026732;28;20462;-43
2022/03/20 06:57:35;;;;;;;29.13;20.23;;;6.90;55.50;;;;;;5020095;28;20519;-43
2022/03/20 07:00:06;;;;;;;27.07;20.80;;;7.00;55.50;;;;;;5023496;28;20543;-43
2022/03/20 07:02:33;;;;;;;30.60;20.93;;;7.00;55.80;;;;;;5024454;28;20463;-43
2022/03/20 07:05:00;;;;;;;31.63;21.37;;;7.10;55.40;;;;;;5018749;28;21048;-43
2022/03/20 07:07:27;;;;;;;32.00;21.60;;;7.10;56.10;;;;;;5009338;28;21450;-43
2022/03/20 07:09:54;;;;;;;31.00;20.20;;;7.20;55.80;;;;;;5018301;28;20566;-43
2022/03/20 07:12:21;;;;;;;31.43;22.00;;;7.20;56.00;;;;;;5020782;28;20448;-43
2022/03/20 07:14:48;;;;;;;32.33;22.80;;;7.20;56.60;;;;;;5019593;28;21031;-43
2022/03/20 07:17:16;;;;;;;34.97;22.10;;;7.20;55.90;;;;;;5021656;28;20822;-43
2022/03/20 07:19:44;;;;;;;34.50;21.50;;;7.20;56.20;;;;;;5003631;28;20547;-43
2022/03/20 07:22:14;;;;;;;33.13;22.80;;;7.30;56.20;;;;;;5019934;28;20460;-43
2022/03/20 07:24:47;;;;;;;28.50;21.10;;;7.30;56.10;;;;;;5004845;28;20463;-44
2022/03/20 07:29:59;;;;;;;36.77;22.10;;;7.30;55.80;;;;;;5020094;28;20754;-44
2022/03/20 07:32:26;;;;;;;26.87;19.93;;;7.30;55.40;;;;;;5025195;28;20459;-43
2022/03/20 07:34:53;;;;;;;27.77;21.40;;;7.30;55.60;;;;;;5020192;28;20466;-43
2022/03/20 07:37:20;;;;;;;33.30;22.73;;;7.30;55.70;;;;;;5025787;28;20463;-43
2022/03/20 07:39:49;;;;;;;37.00;22.37;;;7.40;56.00;;;;;;5017249;28;20463;-43
2022/03/20 07:42:18;;;;;;;33.93;22.20;;;7.40;55.60;;;;;;5025096;28;20455;-43
2022/03/20 07:44:45;;;;;;;30.67;20.57;;;7.50;55.50;;;;;;5017465;28;20813;-43
2022/03/20 07:47:20;;;;;;;31.40;22.70;;;7.50;55.20;;;;;;5026438;28;20486;-43
2022/03/20 07:49:49;;;;;;;33.47;21.50;;;7.60;55.30;;;;;;5000798;28;20456;-43
2022/03/20 07:52:16;;;;;;;28.17;20.77;;;7.70;55.80;;;;;;5019728;28;20458;-43
2022/03/20 07:54:45;;;;;;;36.90;22.53;;;7.80;55.10;;;;;;5018097;28;20482;-43
2022/03/20 07:57:13;;;;;;;32.20;22.73;;;7.90;54.50;;;;;;5015752;28;20521;-43
2022/03/20 07:59:41;;;;;;;26.70;20.63;;;8.00;54.50;;;;;;5006655;28;20449;-43
2022/03/20 08:02:08;;;;;;;32.53;23.00;;;8.20;53.80;;;;;;5023995;28;20511;-43
2022/03/20 08:04:35;;;;;;;31.50;22.10;;;8.30;53.60;;;;;;5018622;28;20460;-43
2022/03/20 08:07:03;;;;;;;33.10;25.40;;;8.40;52.90;;;;;;5007703;28;20448;-43
2022/03/20 08:09:31;;;;;;;29.83;21.83;;;8.50;52.30;;;;;;5000751;28;20464;-43
2022/03/20 08:11:58;;;;;;;29.30;22.07;;;8.70;52.10;;;;;;5020813;28;20461;-43
2022/03/20 08:14:27;;;;;;;27.50;20.90;;;8.70;52.10;;;;;;5020678;28;20488;-43
2022/03/20 08:16:54;;;;;;;30.20;20.03;;;8.80;52.10;;;;;;5034060;28;20477;-44
2022/03/20 08:19:23;;;;;;;32.57;22.03;;;8.90;52.20;;;;;;5024366;28;20491;-44
2022/03/20 08:21:50;;;;;;;30.30;21.07;;;9.00;52.10;;;;;;5021981;28;20488;-43
2022/03/20 08:24:18;;;;;;;28.10;20.07;;;9.10;52.10;;;;;;5024613;28;20458;-43
2022/03/20 08:26:45;;;;;;;30.83;22.47;;;9.20;51.60;;;;;;5020264;28;20460;-43
2022/03/20 08:29:13;;;;;;;32.77;22.07;;;9.30;51.20;;;;;;5023790;28;20452;-43
2022/03/20 08:31:44;;;;;;;31.40;21.90;;;9.40;50.90;;;;;;5017370;28;20464;-43
2022/03/20 08:34:13;;;;;;;32.73;21.80;;;9.40;51.00;;;;;;5019331;28;20470;-44
2022/03/20 08:36:44;;;;;;;36.23;22.10;;;9.50;51.00;;;;;;5024694;28;20474;-44
2022/03/20 08:39:11;;;;;;;28.67;20.57;;;9.60;50.50;;;;;;5026403;28;20923;-44
2022/03/20 08:41:38;;;;;;;27.00;21.60;;;9.80;50.60;;;;;;5024243;28;20825;-44
2022/03/20 08:44:06;;;;;;;31.17;20.50;;;9.90;50.30;;;;;;5022035;28;20451;-44
2022/03/20 08:46:33;;;;;;;34.40;22.00;;;10.00;50.10;;;;;;5037920;28;20475;-44
2022/03/20 08:49:05;;;;;;;28.60;21.80;;;10.10;49.80;;;;;;5007111;28;20693;-44
2022/03/20 08:51:38;;;;;;;31.60;23.83;;;10.20;49.50;;;;;;5022196;28;20510;-43
2022/03/20 08:54:05;;;;;;;31.00;21.03;;;10.20;49.70;;;;;;5024448;28;21109;-44
2022/03/20 08:56:33;;;;;;;27.10;22.80;;;10.30;49.60;;;;;;5005507;28;20973;-43
2022/03/20 08:59:00;;;;;;;29.37;20.80;;;10.40;49.50;;;;;;5022020;28;20516;-45
2022/03/20 09:01:27;;;;;;;31.33;21.73;;;10.40;49.30;;;;;;5039077;28;20524;-44
2022/03/20 09:03:54;;;;;;;30.87;22.50;;;10.40;49.10;;;;;;5021980;28;20541;-43
2022/03/20 09:06:22;;;;;;;33.67;23.57;;;10.50;49.20;;;;;;5022274;28;20472;-44
2022/03/20 09:08:50;;;;;;;30.03;22.00;;;10.60;49.10;;;;;;5020109;28;20482;-44
2022/03/20 09:11:18;;;;;;;28.43;22.50;;;10.70;49.30;;;;;;5043154;28;20460;-44
2022/03/20 09:13:45;;;;;;;31.93;21.80;;;10.80;49.00;;;;;;5021770;28;20471;-44
2022/03/20 09:19:00;;;;;;;34.10;23.63;;;11.00;48.40;;;;;;5025202;28;20495;-44
2022/03/20 09:21:28;;;;;;;26.90;21.50;;;11.00;48.40;;;;;;5006787;28;20551;-44
2022/03/20 09:23:55;;;;;;;31.27;20.87;;;10.90;48.70;;;;;;5036243;28;20971;-44
2022/03/20 09:26:22;;;;;;;33.97;23.90;;;10.90;48.70;;;;;;5020542;28;20968;-46
2022/03/20 09:28:49;;;;;;;29.53;22.13;;;11.10;48.90;;;;;;5020755;28;20459;-44
2022/03/20 09:31:16;;;;;;;31.67;21.70;;;11.20;48.70;;;;;;5029252;28;20456;-44
2022/03/20 09:33:44;;;;;;;33.03;22.50;;;11.40;48.50;;;;;;5025402;28;20472;-44
2022/03/20 09:36:11;;;;;;;28.60;22.33;;;11.60;48.60;;;;;;5022713;28;20468;-44
2022/03/20 09:38:38;;;;;;;30.57;22.27;;;11.80;48.30;;;;;;5025666;28;20483;-46
2022/03/20 09:41:07;;;;;;;27.97;20.73;;;12.10;48.10;;;;;;5024664;28;20551;-46
2022/03/20 09:43:38;;;;;;;30.80;23.77;;;12.20;47.80;;;;;;5016682;28;20460;-46
2022/03/20 09:46:10;;;;;;;33.53;23.70;;;12.40;47.30;;;;;;5021872;28;20486;-46
2022/03/20 09:48:37;;;;;;;33.50;21.50;;;12.60;46.90;;;;;;5035915;28;20470;-46
2022/03/20 09:51:05;;;;;;;35.60;24.03;;;12.60;46.50;;;;;;4992284;28;20940;-46
2022/03/20 09:53:32;;;;;;;26.77;20.40;;;12.80;46.60;;;;;;5026844;28;20490;-45
2022/03/20 09:56:00;;;;;;;29.93;21.87;;;13.00;46.30;;;;;;5019885;28;20467;-46
2022/03/20 09:58:28;;;;;;;31.03;23.90;;;13.20;45.80;;;;;;5017667;28;20499;-45
2022/03/20 10:00:56;;;;;;;29.00;21.60;;;13.40;45.40;;;;;;5023081;28;20447;-45
2022/03/20 10:03:24;;;;;;;30.07;21.53;;;13.60;45.20;;;;;;5021823;28;20463;-45
2022/03/20 10:06:16;;;;;;;34.90;22.60;;;13.90;45.10;;;;;;5009534;28;20456;-45
2022/03/20 10:09:02;;;;;;;33.20;23.30;;;14.00;44.70;;;;;;5020604;28;20475;-45
2022/03/20 10:11:29;;;;;;;27.10;21.47;;;14.00;44.90;;;;;;5019305;28;20456;-45
2022/03/20 10:14:14;;;;;;;26.83;21.27;;;14.10;45.10;;;;;;5020127;28;20451;-45
2022/03/20 10:16:49;;;;;;;30.37;22.00;;;14.30;44.80;;;;;;5018850;28;20443;-45
2022/03/20 10:19:22;;;;;;;29.10;23.43;;;14.40;44.50;;;;;;5020929;28;21123;-45
2022/03/20 10:21:55;;;;;;;28.33;22.37;;;14.70;44.40;;;;;;5018152;28;20463;-45
2022/03/20 10:24:23;;;;;;;28.80;22.40;;;15.00;44.00;;;;;;5019029;28;20793;-45
2022/03/20 10:27:01;;;;;;;28.37;21.83;;;15.00;43.10;;;;;;5019677;28;20470;-45
2022/03/20 10:29:32;;;;;;;29.20;21.40;;;15.20;43.20;;;;;;5021185;28;20444;-45
2022/03/20 10:32:09;;;;;;;28.23;22.83;;;15.40;43.10;;;;;;5011716;28;21305;-45
2022/03/20 10:35:00;;;;;;;33.13;21.97;;;15.60;43.00;;;;;;5017599;28;20494;-46
2022/03/20 10:37:55;;;;;;;26.50;22.67;;;15.80;43.00;;;;;;5021118;28;20540;-46
2022/03/20 10:40:27;;;;;;;29.10;22.13;;;15.60;43.00;;;;;;5020879;28;20490;-45
2022/03/20 10:43:09;;;;;;;31.97;22.93;;;15.30;43.30;;;;;;5017895;28;20467;-45
2022/03/20 10:46:05;;;;;;;29.33;21.80;;;15.20;43.90;;;;;;5019615;28;20540;-46
2022/03/20 10:48:35;;;;;;;29.50;22.60;;;14.90;44.50;;;;;;5005494;28;20468;-45
2022/03/20 10:51:03;;;;;;;31.43;22.53;;;14.80;44.90;;;;;;5019035;28;20932;-45
2022/03/20 10:53:30;;;;;;;29.63;23.23;;;14.60;45.70;;;;;;5015677;28;20491;-46
2022/03/20 10:56:08;;;;;;;26.27;21.43;;;14.40;46.60;;;;;;5019085;28;20455;-46
2022/03/20 10:58:39;;;;;;;28.13;23.17;;;14.30;47.20;;;;;;5015648;28;20488;-46
2022/03/20 11:01:08;;;;;;;31.20;23.90;;;14.20;47.40;;;;;;5017604;28;20456;-46
2022/03/20 11:03:37;;;;;;;31.50;23.67;;;14.10;48.20;;;;;;5016838;28;20451;-46
2022/03/20 11:06:09;;;;;;;33.00;23.73;;;14.00;48.90;;;;;;5002920;28;20456;-45
2022/03/20 11:08:37;;;;;;;32.10;23.63;;;14.00;49.20;;;;;;5017841;28;20486;-45
2022/03/20 11:11:05;;;;;;;33.97;24.07;;;13.80;49.40;;;;;;5035657;28;20958;-45
2022/03/20 11:13:35;;;;;;;34.67;23.80;;;13.70;49.90;;;;;;5020653;28;20456;-46
2022/03/20 11:16:05;;;;;;;31.23;24.00;;;13.50;50.30;;;;;;5020539;28;20583;-45
2022/03/20 11:18:35;;;;;;;33.97;22.93;;;13.40;51.50;;;;;;5008708;28;20487;-46
2022/03/20 11:21:04;;;;;;;28.50;22.43;;;13.40;52.20;;;;;;5015497;28;20538;-45
2022/03/20 11:23:33;;;;;;;32.60;21.53;;;13.40;52.40;;;;;;5003172;28;20455;-45
2022/03/20 11:26:02;;;;;;;31.77;22.13;;;13.40;52.50;;;;;;5017792;28;20969;-46
2022/03/20 11:28:43;;;;;;;38.30;22.93;;;13.50;52.50;;;;;;5017258;28;20455;-45
2022/03/20 11:31:10;;;;;;;31.07;22.40;;;13.60;52.10;;;;;;5004091;28;20470;-46
2022/03/20 11:33:37;;;;;;;29.40;22.10;;;13.50;51.60;;;;;;5018532;28;20574;-46
2022/03/20 11:36:05;;;;;;;30.60;23.30;;;13.40;51.80;;;;;;5016148;28;20463;-46
2022/03/20 11:38:35;;;;;;;34.53;24.17;;;13.50;52.30;;;;;;5010081;28;20514;-46
2022/03/20 11:41:11;;;;;;;31.63;21.70;;;13.50;52.40;;;;;;5006884;28;20459;-46
2022/03/20 11:43:41;;;;;;;27.33;21.80;;;13.50;52.50;;;;;;5037085;28;20450;-45
2022/03/20 11:46:43;;;;;;;27.43;20.73;;;13.70;52.50;;;;;;5016585;28;20459;-45
2022/03/20 11:49:14;;;;;;;27.83;20.80;;;13.70;52.30;;;;;;5012426;28;20468;-46
2022/03/20 11:51:59;;;;;;;26.20;20.63;;;13.70;52.40;;;;;;5033564;28;20991;-46
2022/03/20 11:54:41;;;;;;;31.07;21.47;;;13.90;52.20;;;;;;5014881;28;20475;-46
2022/03/20 11:57:29;;;;;;;28.30;21.10;;;14.10;52.10;;;;;;5012609;28;20570;-46
2022/03/20 12:00:30;;;;;;;30.80;21.50;;;14.30;51.10;;;;;;5032652;28;20483;-46
2022/03/20 12:03:05;;;;;;;25.33;19.77;;;14.60;51.10;;;;;;4988230;28;20459;-46
2022/03/20 12:05:41;;;;;;;30.33;22.10;;;14.90;50.10;;;;;;5015535;28;20455;-46
2022/03/20 12:08:26;;;;;;;25.33;20.57;;;15.10;50.40;;;;;;5017115;28;20466;-46
2022/03/20 12:11:18;;;;;;;27.97;20.13;;;15.40;49.60;;;;;;5024029;28;20455;-47
2022/03/20 12:14:10;;;;;;;27.80;19.00;;;15.50;49.30;;;;;;5038068;28;20455;-46
2022/03/20 12:16:43;;;;;;;29.70;20.40;;;15.40;49.50;;;;;;5022679;28;20829;-46
2022/03/20 12:19:12;;;;;;;27.57;20.27;;;15.40;49.50;;;;;;5020792;28;20573;-46
2022/03/20 12:21:54;;;;;;;26.23;19.40;;;15.60;49.60;;;;;;5016183;28;20501;-46
2022/03/20 12:24:36;;;;;;;28.90;19.40;;;15.80;48.80;;;;;;5018058;28;20491;-46
2022/03/20 12:27:24;;;;;;;26.40;20.40;;;15.90;48.50;;;;;;5032958;28;20460;-46
2022/03/20 12:29:52;;;;;;;25.90;19.50;;;16.00;48.50;;;;;;5036298;28;20478;-46
2022/03/20 12:32:21;;;;;;;23.77;19.33;;;16.00;48.20;;;;;;5022332;28;21032;-46
2022/03/20 12:35:00;;;;;;;25.10;18.53;;;15.80;48.60;;;;;;5016758;28;20471;-46
2022/03/20 12:37:33;;;;;;;23.87;18.67;;;15.80;48.90;;;;;;5035685;28;20460;-46
2022/03/20 12:40:22;;;;;;;24.60;19.07;;;15.90;49.00;;;;;;5022203;28;20494;-46
2022/03/20 12:43:14;;;;;;;24.60;17.83;;;15.80;49.00;;;;;;5016102;28;20502;-46
2022/03/20 12:45:46;;;;;;;21.30;17.87;;;15.90;49.20;;;;;;5020701;28;20961;-46
2022/03/20 12:48:18;;;;;;;24.47;17.77;;;16.00;49.10;;;;;;5021114;28;20507;-46
2022/03/20 12:51:07;;;;;;;23.00;17.00;;;16.10;49.10;;;;;;5017845;28;20549;-46
2022/03/20 12:53:40;;;;;;;19.23;16.67;;;16.00;48.70;;;;;;5034844;28;20455;-46
2022/03/20 12:56:29;;;;;;;24.50;17.60;;;16.00;48.90;;;;;;5019271;28;20464;-46
2022/03/20 12:58:54;;;;;;;25.50;18.10;;;15.90;48.70;;;;;;5015029;28;20590;-45
2022/03/20 13:01:21;;;;;;;21.93;16.77;;;15.90;49.30;;;;;;5022750;28;20469;-46
2022/03/20 13:03:48;;;;;;;23.93;17.90;;;15.90;49.20;;;;;;5024567;28;20487;-46
2022/03/20 13:06:15;;;;;;;24.10;17.50;;;16.00;48.90;;;;;;5023641;28;20963;-46
2022/03/20 13:08:46;;;;;;;22.83;17.23;;;16.10;49.00;;;;;;5022256;28;20463;-46
2022/03/20 13:14:13;;;;;;;25.13;18.60;;;16.30;48.70;;;;;;5020303;28;20463;-45